Time;durP1;ratioP1;P1;durP2;ratioP2;P2;SDS_P1;SDS_P2;PMS_P1;PMS_P2;Temp;Humidity;BMP_temperature;BMP_pressure;BME280_temperature;BME280_humidity;BME280_pressure;Samples;Min_cycle;Max_cycle;Signal;HPM_P1;HPM_P2
2022/06/17 00:02:08;;;;;;;7;6.2;;;;;;;;;;;;;
2022/06/17 00:04:37;;;;;;;7.6;6.2;;;;;;;;;;;;;
2022/06/17 00:07:05;;;;;;;7.6;6;;;;;;;;;;;;;
2022/06/17 00:09:36;;;;;;;6.7;6;;;;;;;;;;;;;
2022/06/17 00:12:01;;;;;;;6.6;5.9;;;;;;;;;;;;;
2022/06/17 00:14:31;;;;;;;7.1;5.7;;;;;;;;;;;;;
2022/06/17 00:16:54;;;;;;;6.7;6.1;;;;;;;;;;;;;
2022/06/17 00:19:21;;;;;;;7;6.1;;;;;;;;;;;;;
2022/06/17 00:21:46;;;;;;;9.5;6.3;;;;;;;;;;;;;
2022/06/17 00:24:11;;;;;;;10.2;6.4;;;;;;;;;;;;;
2022/06/17 00:26:36;;;;;;;8.1;6.4;;;;;;;;;;;;;
2022/06/17 00:29:02;;;;;;;7.2;5.7;;;;;;;;;;;;;
2022/06/17 00:31:27;;;;;;;6.4;5.7;;;;;;;;;;;;;
2022/06/17 00:33:52;;;;;;;6.4;5.7;;;;;;;;;;;;;
2022/06/17 00:36:17;;;;;;;6.6;5.7;;;;;;;;;;;;;
2022/06/17 00:38:45;;;;;;;7.5;6.3;;;;;;;;;;;;;
2022/06/17 00:41:10;;;;;;;7.4;6.5;;;;;;;;;;;;;
2022/06/17 00:43:36;;;;;;;6.9;5.8;;;;;;;;;;;;;
2022/06/17 00:46:05;;;;;;;8.2;6;;;;;;;;;;;;;
2022/06/17 00:48:26;;;;;;;6.9;6.2;;;;;;;;;;;;;
2022/06/17 00:50:51;;;;;;;9.2;6.4;;;;;;;;;;;;;
2022/06/17 00:53:17;;;;;;;6.8;6;;;;;;;;;;;;;
2022/06/17 00:55:42;;;;;;;7.9;6.1;;;;;;;;;;;;;
2022/06/17 00:58:07;;;;;;;7.8;6;;;;;;;;;;;;;
2022/06/17 01:00:32;;;;;;;6.9;6.2;;;;;;;;;;;;;
2022/06/17 01:03:00;;;;;;;8;7.1;;;;;;;;;;;;;
2022/06/17 01:05:25;;;;;;;7.8;7;;;;;;;;;;;;;
2022/06/17 01:07:50;;;;;;;10;7.2;;;;;;;;;;;;;
2022/06/17 01:10:17;;;;;;;9.8;7.4;;;;;;;;;;;;;
2022/06/17 01:12:42;;;;;;;7.7;6.8;;;;;;;;;;;;;
2022/06/17 01:15:09;;;;;;;10.4;6.5;;;;;;;;;;;;;
2022/06/17 01:17:34;;;;;;;8.2;6.8;;;;;;;;;;;;;
2022/06/17 01:20:01;;;;;;;7.6;6;;;;;;;;;;;;;
2022/06/17 01:22:26;;;;;;;7.3;6.6;;;;;;;;;;;;;
2022/06/17 01:24:51;;;;;;;7.3;6.2;;;;;;;;;;;;;
2022/06/17 01:27:16;;;;;;;9.9;6;;;;;;;;;;;;;
2022/06/17 01:29:41;;;;;;;8.5;7.1;;;;;;;;;;;;;
2022/06/17 01:32:06;;;;;;;8.9;6.6;;;;;;;;;;;;;
2022/06/17 01:34:31;;;;;;;7.3;6.1;;;;;;;;;;;;;
2022/06/17 01:36:58;;;;;;;9;6.6;;;;;;;;;;;;;
2022/06/17 01:39:23;;;;;;;8.4;6.3;;;;;;;;;;;;;
2022/06/17 01:41:49;;;;;;;7.7;6.3;;;;;;;;;;;;;
2022/06/17 01:44:14;;;;;;;7.1;5.7;;;;;;;;;;;;;
2022/06/17 01:46:39;;;;;;;7.4;6;;;;;;;;;;;;;
2022/06/17 01:49:05;;;;;;;8.8;6.3;;;;;;;;;;;;;
2022/06/17 01:51:32;;;;;;;6.6;5.7;;;;;;;;;;;;;
2022/06/17 01:53:57;;;;;;;6.8;6.1;;;;;;;;;;;;;
2022/06/17 01:56:22;;;;;;;6.9;5.8;;;;;;;;;;;;;
2022/06/17 01:58:49;;;;;;;8;6.1;;;;;;;;;;;;;
2022/06/17 02:01:13;;;;;;;6.7;6;;;;;;;;;;;;;
2022/06/17 02:03:40;;;;;;;6.8;6.2;;;;;;;;;;;;;
2022/06/17 02:06:05;;;;;;;7;5.6;;;;;;;;;;;;;
2022/06/17 02:08:31;;;;;;;7.2;6.2;;;;;;;;;;;;;
2022/06/17 02:10:56;;;;;;;9.1;6;;;;;;;;;;;;;
2022/06/17 02:13:21;;;;;;;8.6;6.4;;;;;;;;;;;;;
2022/06/17 02:15:47;;;;;;;7.3;6.1;;;;;;;;;;;;;
2022/06/17 02:18:12;;;;;;;8;5.8;;;;;;;;;;;;;
2022/06/17 02:20:37;;;;;;;7.5;6.6;;;;;;;;;;;;;
2022/06/17 02:23:02;;;;;;;6.6;5.9;;;;;;;;;;;;;
2022/06/17 02:25:28;;;;;;;7.3;5.8;;;;;;;;;;;;;
2022/06/17 02:27:53;;;;;;;9;6.1;;;;;;;;;;;;;
2022/06/17 02:30:20;;;;;;;7;6.3;;;;;;;;;;;;;
2022/06/17 02:32:46;;;;;;;8;6.2;;;;;;;;;;;;;
2022/06/17 02:35:14;;;;;;;8.9;6.8;;;;;;;;;;;;;
2022/06/17 02:37:42;;;;;;;7.4;6.3;;;;;;;;;;;;;
2022/06/17 02:40:07;;;;;;;6.4;5.8;;;;;;;;;;;;;
2022/06/17 02:42:36;;;;;;;9.5;6.4;;;;;;;;;;;;;
2022/06/17 02:45:01;;;;;;;7.5;6.4;;;;;;;;;;;;;
2022/06/17 02:47:29;;;;;;;6.9;6.3;;;;;;;;;;;;;
2022/06/17 02:49:54;;;;;;;7.4;6.5;;;;;;;;;;;;;
2022/06/17 02:52:21;;;;;;;7.9;6.3;;;;;;;;;;;;;
2022/06/17 02:54:46;;;;;;;6.9;6.2;;;;;;;;;;;;;
2022/06/17 02:57:12;;;;;;;6.8;6.1;;;;;;;;;;;;;
2022/06/17 02:59:37;;;;;;;7.2;5.9;;;;;;;;;;;;;
2022/06/17 03:02:02;;;;;;;6.7;6.1;;;;;;;;;;;;;
2022/06/17 03:04:28;;;;;;;8;6;;;;;;;;;;;;;
2022/06/17 03:06:53;;;;;;;7.9;6.2;;;;;;;;;;;;;
2022/06/17 03:09:18;;;;;;;8.5;6.7;;;;;;;;;;;;;
2022/06/17 03:11:43;;;;;;;6.7;5.8;;;;;;;;;;;;;
2022/06/17 03:14:12;;;;;;;6.9;6.2;;;;;;;;;;;;;
2022/06/17 03:16:34;;;;;;;8.6;6.2;;;;;;;;;;;;;
2022/06/17 03:19:00;;;;;;;7.2;6.2;;;;;;;;;;;;;
2022/06/17 03:21:25;;;;;;;9.7;6.7;;;;;;;;;;;;;
2022/06/17 03:23:51;;;;;;;6.9;6.1;;;;;;;;;;;;;
2022/06/17 03:26:16;;;;;;;9.5;6.6;;;;;;;;;;;;;
2022/06/17 03:28:42;;;;;;;7.5;6.7;;;;;;;;;;;;;
2022/06/17 03:31:07;;;;;;;7.7;7;;;;;;;;;;;;;
2022/06/17 03:33:34;;;;;;;7.5;6.7;;;;;;;;;;;;;
2022/06/17 03:35:58;;;;;;;8;7.2;;;;;;;;;;;;;
2022/06/17 03:38:24;;;;;;;8.6;7.7;;;;;;;;;;;;;
2022/06/17 03:40:50;;;;;;;9.7;7.2;;;;;;;;;;;;;
2022/06/17 03:43:16;;;;;;;7.8;7;;;;;;;;;;;;;
2022/06/17 03:45:43;;;;;;;7.8;6.6;;;;;;;;;;;;;
2022/06/17 03:48:06;;;;;;;8;6.2;;;;;;;;;;;;;
2022/06/17 03:50:32;;;;;;;7.4;6.1;;;;;;;;;;;;;
2022/06/17 03:52:56;;;;;;;9.1;6;;;;;;;;;;;;;
2022/06/17 03:55:22;;;;;;;7.4;6.7;;;;;;;;;;;;;
2022/06/17 03:57:47;;;;;;;7.3;6.2;;;;;;;;;;;;;
2022/06/17 04:02:34;;;;;;;8.7;6.5;;;;;;;15.33;94.91602;944.1791;;;;
2022/06/17 04:05:00;;;;;;;7.8;6.4;;;;;;;15.35;94.64258;944.1855;;;;
2022/06/17 04:07:26;;;;;;;8.3;6.9;;;;;;;15.49;94.35059;944.1834;;;;
2022/06/17 04:09:58;;;;;;;9.2;6.3;;;;;;;15.54;94.1084;944.1707;;;;
2022/06/17 04:12:32;;;;;;;9;6.6;;;;;;;15.55;93.95801;944.2147;;;;
2022/06/17 04:15:02;;;;;;;8.5;6.7;;;;;;;15.45;94.07715;944.2034;;;;
2022/06/17 04:17:36;;;;;;;8.7;6.8;;;;;;;15.38;94.66211;944.2899;;;;
2022/06/17 04:20:01;;;;;;;10.5;7;;;;;;;15.39;94.53711;944.2938;;;;
2022/06/17 04:22:36;;;;;;;9.1;6.7;;;;;;;15.35;94.8877;944.2762;;;;
2022/06/17 04:24:59;;;;;;;8.6;6.7;;;;;;;15.46;94.50684;944.2999;;;;
2022/06/17 04:27:56;;;;;;;9;7.1;;;;;;;15.43;94.41797;944.2477;;;;
2022/06/17 04:29:55;;;;;;;9.6;6.6;;;;;;;15.43;94.2793;944.2661;;;;
2022/06/17 04:32:20;;;;;;;6.7;6.1;;;;;;;15.42;93.92188;944.2966;;;;
2022/06/17 04:34:46;;;;;;;7.2;6.4;;;;;;;15.51;93.77734;944.2958;;;;
2022/06/17 04:37:19;;;;;;;8.2;6.4;;;;;;;15.56;93.77734;944.3632;;;;
2022/06/17 04:39:39;;;;;;;9.2;6.6;;;;;;;15.59;93.86426;944.3242;;;;
2022/06/17 04:42:04;;;;;;;11.2;6.4;;;;;;;15.62;93.8584;944.3984;;;;
2022/06/17 04:44:29;;;;;;;12;6.5;;;;;;;15.63;93.54883;944.3566;;;;
2022/06/17 04:46:58;;;;;;;10.5;7.4;;;;;;;15.69;93.18066;944.3895;;;;
2022/06/17 04:49:23;;;;;;;7.3;6.5;;;;;;;15.83;92.4375;944.4058;;;;
2022/06/17 04:51:48;;;;;;;9.8;6.6;;;;;;;15.91;92.19824;944.4025;;;;
2022/06/17 04:54:17;;;;;;;9;6.5;;;;;;;15.88;92.58496;944.4667;;;;
2022/06/17 04:56:42;;;;;;;7.7;6.9;;;;;;;15.86;91.20605;944.4668;;;;
2022/06/17 04:59:09;;;;;;;9.4;7.2;;;;;;;15.85;91.6416;944.4403;;;;
2022/06/17 05:01:36;;;;;;;11.5;8.3;;;;;;;16.14;93.48535;944.5156;;;;
2022/06/17 05:04:01;;;;;;;6.7;5;;;;;;;17.15;89.08691;944.5071;;;;
2022/06/17 05:06:29;;;;;;;8.4;6.1;;;;;;;18.03;85.79199;944.5047;;;;
2022/06/17 05:08:56;;;;;;;6.2;5;;;;;;;19.03;80.51563;944.4799;;;;
2022/06/17 05:11:20;;;;;;;6;4.3;;;;;;;20.05;75.59082;944.442;;;;
2022/06/17 05:13:45;;;;;;;6.2;4.5;;;;;;;20.82;72.62402;944.4473;;;;
2022/06/17 05:16:14;;;;;;;9.6;4.5;;;;;;;21.68;69.26465;944.4424;;;;
2022/06/17 05:18:47;;;;;;;7.1;3.8;;;;;;;22.1;67.23145;944.4891;;;;
2022/06/17 05:21:15;;;;;;;5.8;3.6;;;;;;;22.71;63.98926;944.4293;;;;
2022/06/17 05:23:45;;;;;;;5.6;4.1;;;;;;;22.51;62.35254;944.5075;;;;
2022/06/17 05:26:10;;;;;;;6.6;4.1;;;;;;;22.12;65.85059;944.4398;;;;
2022/06/17 05:28:38;;;;;;;3.9;3.5;;;;;;;22.76;64.02051;944.5051;;;;
2022/06/17 05:31:03;;;;;;;5.6;4;;;;;;;22.89;64.56641;944.5092;;;;
2022/06/17 05:33:28;;;;;;;5.8;4.3;;;;;;;23.34;61.68164;944.5472;;;;
2022/06/17 05:35:53;;;;;;;5.4;3.8;;;;;;;23.65;59.91406;944.5338;;;;
2022/06/17 05:38:18;;;;;;;4.3;3.9;;;;;;;23.29;60.10059;944.5031;;;;
2022/06/17 05:40:48;;;;;;;4.4;3.4;;;;;;;22.95;61.30957;944.6108;;;;
2022/06/17 05:43:17;;;;;;;4.1;3.7;;;;;;;23.76;58.83301;944.5645;;;;
2022/06/17 05:45:42;;;;;;;5.6;3.4;;;;;;;24.69;58.04883;944.5776;;;;
2022/06/17 05:48:11;;;;;;;5.4;3.5;;;;;;;24.39;55.9834;944.5817;;;;
2022/06/17 05:50:36;;;;;;;5.7;3.2;;;;;;;24.09;55.90918;944.6912;;;;
2022/06/17 05:53:02;;;;;;;5.4;3.1;;;;;;;23.91;56.28711;944.6837;;;;
2022/06/17 05:55:27;;;;;;;6.9;3.8;;;;;;;23.33;58.92969;944.6474;;;;
2022/06/17 05:57:58;;;;;;;4;3.4;;;;;;;24.14;58.45898;944.6652;;;;
2022/06/17 06:00:23;;;;;;;4.4;3.6;;;;;;;24.68;59.88672;944.7228;;;;
2022/06/17 06:02:50;;;;;;;7.6;4.1;;;;;;;24.98;57.27246;944.6831;;;;
2022/06/17 06:05:15;;;;;;;6;3.3;;;;;;;25.42;56.08789;944.6923;;;;
2022/06/17 06:07:41;;;;;;;5.3;3.3;;;;;;;25.72;55.41699;944.6791;;;;
2022/06/17 06:10:08;;;;;;;4.9;3.5;;;;;;;25.59;52.25781;944.6877;;;;
2022/06/17 06:12:57;;;;;;;5.6;3.3;;;;;;;25.17;53.11816;944.7526;;;;
2022/06/17 06:14:58;;;;;;;7;3.4;;;;;;;25.41;52.41504;944.7659;;;;
2022/06/17 06:17:23;;;;;;;5.4;3.3;;;;;;;25.46;52.25488;944.774;;;;
2022/06/17 06:19:51;;;;;;;5.6;3.5;;;;;;;25.56;51.79395;944.7612;;;;
2022/06/17 06:22:17;;;;;;;4.7;3.1;;;;;;;25.69;52.03418;944.7822;;;;
2022/06/17 06:24:44;;;;;;;4.5;3.1;;;;;;;25.56;55.92871;944.7844;;;;
2022/06/17 06:27:09;;;;;;;4.9;3;;;;;;;25.35;52.07617;944.7733;;;;
2022/06/17 06:29:37;;;;;;;4.1;2.9;;;;;;;24.79;58.09766;944.842;;;;
2022/06/17 06:32:03;;;;;;;4.4;3.3;;;;;;;26.05;51.79102;944.9058;;;;
2022/06/17 06:34:28;;;;;;;3.3;3;;;;;;;26.06;53.3418;944.9005;;;;
2022/06/17 06:36:55;;;;;;;6;3;;;;;;;26.14;50.47656;944.8688;;;;
2022/06/17 06:39:20;;;;;;;3.7;3.1;;;;;;;24.67;59.03613;944.9352;;;;
2022/06/17 06:41:49;;;;;;;4.2;3.8;;;;;;;23.36;62.69824;945.0251;;;;
2022/06/17 06:44:14;;;;;;;3.7;3;;;;;;;23.53;61.02539;945.0352;;;;
2022/06/17 06:46:41;;;;;;;4.3;3.2;;;;;;;23.04;62.13379;945.052;;;;
2022/06/17 06:49:06;;;;;;;3.5;3.2;;;;;;;23.91;60.4668;945.0301;;;;
2022/06/17 06:51:33;;;;;;;4.3;3.3;;;;;;;24.8;54.57227;944.9899;;;;
2022/06/17 06:53:59;;;;;;;4.5;3.2;;;;;;;25.83;55.07715;945.008;;;;
2022/06/17 06:56:26;;;;;;;3.3;3;;;;;;;27.58;50.17578;945.0814;;;;
2022/06/17 06:58:52;;;;;;;4.5;3.1;;;;;;;28.12;47.05176;945.0295;;;;
2022/06/17 07:01:22;;;;;;;4.1;3.1;;;;;;;28.18;45.13281;945.0183;;;;
2022/06/17 07:03:50;;;;;;;5.4;3.2;;;;;;;28.01;45.9707;945.0394;;;;
2022/06/17 07:06:15;;;;;;;3.6;3.1;;;;;;;28.15;47.62598;945.0739;;;;
2022/06/17 07:08:44;;;;;;;5.5;3.9;;;;;;;26.63;52.42773;945.0659;;;;
2022/06/17 07:11:09;;;;;;;5.1;3.4;;;;;;;26.72;52.74609;945.0247;;;;
2022/06/17 07:13:38;;;;;;;4.5;3.6;;;;;;;26.45;56.99805;945.1389;;;;
2022/06/17 07:16:04;;;;;;;3.5;3.2;;;;;;;26.03;57.45508;945.1236;;;;
2022/06/17 07:18:33;;;;;;;4;3.4;;;;;;;24.39;60.99121;945.1719;;;;
2022/06/17 07:21:03;;;;;;;5.6;3.8;;;;;;;24.11;62.90723;945.1705;;;;
2022/06/17 07:23:29;;;;;;;3.8;3.4;;;;;;;23.79;62.43848;945.1525;;;;
2022/06/17 07:25:57;;;;;;;6.6;3.7;;;;;;;24.54;59.71484;945.1801;;;;
2022/06/17 07:28:22;;;;;;;4.1;3.2;;;;;;;25.29;57.44141;945.117;;;;
2022/06/17 07:30:47;;;;;;;4.4;3.3;;;;;;;26.77;49.02051;945.0592;;;;
2022/06/17 07:33:16;;;;;;;4.3;3.6;;;;;;;27.02;53.71582;945.0967;;;;
2022/06/17 07:35:41;;;;;;;3.7;2.8;;;;;;;28.42;44.93164;945.0604;;;;
2022/06/17 07:40:38;;;;;;;3;2.7;;;;;;;28.32;45.95605;945.0336;;;;
2022/06/17 07:43:08;;;;;;;3.3;2.8;;;;;;;30.16;42.52637;945.0405;;;;
2022/06/17 07:45:36;;;;;;;5.2;2.6;;;;;;;30.34;43.14063;945.0767;;;;
2022/06/17 07:48:04;;;;;;;2.6;2.4;;;;;;;31;40.81152;945.0566;;;;
2022/06/17 07:50:37;;;;;;;4.8;2.6;;;;;;;30.45;40.76172;945.0453;;;;
2022/06/17 07:53:00;;;;;;;4.9;3;;;;;;;31.14;39.30566;945.0756;;;;
2022/06/17 07:55:29;;;;;;;3.7;2.7;;;;;;;31.86;38.24219;945.0237;;;;
2022/06/17 07:57:54;;;;;;;2.9;2.6;;;;;;;32.49;36.53223;945.0201;;;;
2022/06/17 08:00:21;;;;;;;3;2.5;;;;;;;32.66;35.08105;945.017;;;;
2022/06/17 08:02:46;;;;;;;4.6;3.1;;;;;;;32.29;36.27539;945.012;;;;
2022/06/17 08:05:12;;;;;;;3.1;2.6;;;;;;;30.84;37.25977;945.0165;;;;
2022/06/17 08:07:39;;;;;;;3.3;2.6;;;;;;;31.14;38.38477;945.0391;;;;
2022/06/17 08:10:04;;;;;;;4.2;3;;;;;;;31.76;36.77148;945.0219;;;;
2022/06/17 08:12:32;;;;;;;3.1;2.8;;;;;;;29.23;40.09277;945.0396;;;;
2022/06/17 08:14:57;;;;;;;3;2.5;;;;;;;29.65;41.15527;945.0299;;;;
2022/06/17 08:17:26;;;;;;;3.9;2.8;;;;;;;29.37;42.09473;945.0349;;;;
2022/06/17 08:19:55;;;;;;;3.7;3.1;;;;;;;28.79;42.50488;945.0361;;;;
2022/06/17 08:22:17;;;;;;;3;2.7;;;;;;;28.92;44.46973;945.0471;;;;
2022/06/17 08:24:41;;;;;;;4.9;3;;;;;;;29.3;43.79297;945.036;;;;
2022/06/17 08:27:06;;;;;;;3.6;2.6;;;;;;;29.99;41.79492;945.0608;;;;
2022/06/17 08:29:31;;;;;;;3;2.7;;;;;;;30.59;41.36035;945.0714;;;;
2022/06/17 08:32:44;;;;;;;4.9;3;;;;;;;30.39;39.73145;945.0381;;;;
2022/06/17 08:34:21;;;;;;;3.8;3;;;;;;;29.83;41.20801;945.0461;;;;
2022/06/17 08:36:52;;;;;;;3.8;2.9;;;;;;;30.16;40.4502;945.1167;;;;
2022/06/17 08:39:15;;;;;;;4.1;2.7;;;;;;;31.36;38.0332;945.1789;;;;
2022/06/17 08:41:43;;;;;;;3.1;2.7;;;;;;;31.53;37.05176;945.1172;;;;
2022/06/17 08:44:08;;;;;;;5.7;3;;;;;;;31.45;39.06934;945.1055;;;;
2022/06/17 08:46:33;;;;;;;3.7;2.7;;;;;;;31.76;39.51465;945.1092;;;;
2022/06/17 08:48:58;;;;;;;5.1;2.9;;;;;;;30.86;39.03027;945.1206;;;;
2022/06/17 08:51:23;;;;;;;4.7;2.8;;;;;;;31.17;39.94238;945.1258;;;;
2022/06/17 08:53:48;;;;;;;4.8;2.6;;;;;;;31.18;39.03418;945.1169;;;;
2022/06/17 08:56:13;;;;;;;6.1;3;;;;;;;30.21;40.10938;945.1409;;;;
2022/06/17 08:58:39;;;;;;;4.4;3;;;;;;;29.72;42.25781;945.1397;;;;
2022/06/17 09:01:06;;;;;;;4.4;2.7;;;;;;;29.86;41.91504;945.0991;;;;
2022/06/17 09:03:31;;;;;;;3.5;2.8;;;;;;;30.52;40.86426;945.06;;;;
2022/06/17 09:05:56;;;;;;;4.2;2.9;;;;;;;30.69;40.35352;945.0927;;;;
2022/06/17 09:08:22;;;;;;;7.2;3.2;;;;;;;30.75;41.32715;945.0536;;;;
2022/06/17 09:10:50;;;;;;;2.8;2.6;;;;;;;30.73;41.82813;945.0317;;;;
2022/06/17 09:13:14;;;;;;;4.5;2.7;;;;;;;30.69;40.79688;945.0858;;;;
2022/06/17 09:15:40;;;;;;;4.2;2.7;;;;;;;30.46;40.26172;945.0198;;;;
2022/06/17 09:18:05;;;;;;;3.7;2.9;;;;;;;29.6;42.39063;945.012;;;;
2022/06/17 09:20:30;;;;;;;3.1;2.7;;;;;;;29.65;42.16992;944.9639;;;;
2022/06/17 09:22:55;;;;;;;3.3;2.8;;;;;;;29.57;42.74512;944.9878;;;;
2022/06/17 09:25:25;;;;;;;3.7;2.8;;;;;;;30.54;40.14941;944.9625;;;;
2022/06/17 09:27:49;;;;;;;3.5;2.7;;;;;;;30.26;41.52148;944.921;;;;
2022/06/17 09:30:15;;;;;;;3.8;2.8;;;;;;;30.2;39.53418;944.9501;;;;
2022/06/17 09:32:39;;;;;;;4.3;3.1;;;;;;;29.63;41.75098;944.9847;;;;
2022/06/17 09:35:04;;;;;;;4.3;3.2;;;;;;;29.3;41.71973;944.9517;;;;
2022/06/17 09:37:30;;;;;;;3.1;2.8;;;;;;;28.7;42.81836;944.9838;;;;
2022/06/17 09:39:55;;;;;;;3.6;2.9;;;;;;;28.88;42.91797;944.9681;;;;
2022/06/17 09:42:26;;;;;;;3.5;2.8;;;;;;;28.5;43.1084;944.9813;;;;
2022/06/17 09:44:51;;;;;;;6.6;3.3;;;;;;;28;47.15918;944.9561;;;;
2022/06/17 09:47:20;;;;;;;5.1;3.1;;;;;;;28.34;45.4707;944.9906;;;;
2022/06/17 09:49:47;;;;;;;3.6;2.8;;;;;;;28.1;45.64844;944.9925;;;;
2022/06/17 09:52:10;;;;;;;3.4;2.9;;;;;;;28.07;45.19336;944.9851;;;;
2022/06/17 09:54:35;;;;;;;3.1;2.8;;;;;;;28.54;44.03906;945.0497;;;;
2022/06/17 09:57:00;;;;;;;4.5;2.9;;;;;;;28.51;43.43066;945.0695;;;;
2022/06/17 09:59:26;;;;;;;3.6;3.2;;;;;;;28.23;44.56738;944.9833;;;;
2022/06/17 10:01:51;;;;;;;4.2;2.8;;;;;;;27.97;43.69922;945.0762;;;;
2022/06/17 10:04:16;;;;;;;4.1;3.1;;;;;;;27.87;43.86719;945.1533;;;;
2022/06/17 10:06:45;;;;;;;4.2;3.3;;;;;;;27.33;46.50684;945.1545;;;;
2022/06/17 10:09:10;;;;;;;4.9;3.3;;;;;;;26.38;48.5625;945.1119;;;;
2022/06/17 10:11:39;;;;;;;5.1;3.1;;;;;;;26.31;49.75;945.1047;;;;
2022/06/17 10:14:06;;;;;;;3.9;3.3;;;;;;;26.2;51.09863;945.1331;;;;
2022/06/17 10:19:00;;;;;;;3.5;3.2;;;;;;;25.98;47.72754;945.087;;;;
2022/06/17 10:21:25;;;;;;;5.2;3.4;;;;;;;25.86;48.60156;945.0436;;;;
2022/06/17 10:23:51;;;;;;;3.7;3;;;;;;;26.07;49.61816;945.0984;;;;
2022/06/17 10:26:16;;;;;;;4.9;3.2;;;;;;;26.03;49.81445;945.1008;;;;
2022/06/17 10:28:45;;;;;;;4.2;3.5;;;;;;;25.56;49.66699;945.0542;;;;
2022/06/17 10:31:08;;;;;;;4.5;3.4;;;;;;;25.68;47.95605;945.0633;;;;
2022/06/17 10:33:35;;;;;;;3.3;3;;;;;;;26.07;47.82031;945.0298;;;;
2022/06/17 10:36:01;;;;;;;6.4;3.5;;;;;;;26.04;47.81641;945.0287;;;;
2022/06/17 10:38:25;;;;;;;8.1;3.4;;;;;;;26.07;48.15137;945.0167;;;;
2022/06/17 10:40:55;;;;;;;3.5;3.1;;;;;;;26.03;48.08691;945.0356;;;;
2022/06/17 10:43:20;;;;;;;3.5;3.2;;;;;;;25.8;48.29883;944.9973;;;;
2022/06/17 10:45:50;;;;;;;4.3;3.4;;;;;;;25.65;50.31543;945.0217;;;;
2022/06/17 10:48:19;;;;;;;4.7;3.5;;;;;;;25.38;50.76953;945.046;;;;
2022/06/17 10:50:44;;;;;;;4.8;3.7;;;;;;;25.56;49.84473;944.9833;;;;
2022/06/17 10:53:09;;;;;;;5.5;3.1;;;;;;;25.95;49.28418;945.0427;;;;
2022/06/17 10:55:36;;;;;;;4.5;3.6;;;;;;;26.45;48.1084;944.9656;;;;
2022/06/17 10:58:01;;;;;;;4.2;3.4;;;;;;;26.57;47.29199;944.991;;;;
2022/06/17 11:00:27;;;;;;;3.7;3.1;;;;;;;26.83;46.57422;945.0012;;;;
2022/06/17 11:02:51;;;;;;;4.6;3;;;;;;;27.03;46.93945;944.9523;;;;
2022/06/17 11:05:22;;;;;;;4.2;2.9;;;;;;;27.18;45.0918;944.8667;;;;
2022/06/17 11:07:48;;;;;;;4.5;3.1;;;;;;;27.09;46.48242;944.9246;;;;
2022/06/17 11:10:13;;;;;;;3.6;3.3;;;;;;;26.88;45.31152;944.8692;;;;
2022/06/17 11:12:38;;;;;;;3.9;3.3;;;;;;;26.83;45.06934;944.7847;;;;
2022/06/17 11:15:06;;;;;;;3.8;3;;;;;;;27.05;46.03906;944.8226;;;;
2022/06/17 11:17:32;;;;;;;4.5;2.8;;;;;;;27.31;44.86816;944.8022;;;;
2022/06/17 11:19:57;;;;;;;3.2;2.9;;;;;;;27.24;46.20117;944.7913;;;;
2022/06/17 11:22:26;;;;;;;4.3;3;;;;;;;27.59;44.08887;944.752;;;;
2022/06/17 11:24:51;;;;;;;3;2.7;;;;;;;27.79;42.14941;944.7456;;;;
2022/06/17 11:27:17;;;;;;;3.2;2.6;;;;;;;27.65;40.96094;944.7925;;;;
2022/06/17 11:29:42;;;;;;;3.3;3;;;;;;;27.47;41.11133;944.7625;;;;
2022/06/17 11:32:07;;;;;;;3.8;3.1;;;;;;;27.26;41.83984;944.774;;;;
2022/06/17 11:34:32;;;;;;;2.9;2.6;;;;;;;27.24;42.18066;944.8391;;;;
2022/06/17 11:36:59;;;;;;;5.2;3;;;;;;;27.45;41.97461;944.8069;;;;
2022/06/17 11:39:24;;;;;;;2.7;2.5;;;;;;;27.67;43.09961;944.7752;;;;
2022/06/17 11:41:49;;;;;;;2.7;2.4;;;;;;;27.78;42.01855;944.7321;;;;
2022/06/17 11:44:16;;;;;;;3.5;2.8;;;;;;;27.76;41.06641;944.7619;;;;
2022/06/17 11:46:44;;;;;;;3.6;2.5;;;;;;;27.63;40.4375;944.7621;;;;
2022/06/17 11:49:10;;;;;;;3.6;2.8;;;;;;;26.6;41.19824;944.8038;;;;
2022/06/17 11:51:35;;;;;;;3;2.6;;;;;;;26.64;44.375;944.8246;;;;
2022/06/17 11:54:00;;;;;;;4.7;2.7;;;;;;;27.19;42.15332;944.8686;;;;
2022/06/17 11:56:25;;;;;;;4.4;2.6;;;;;;;27.5;40.25977;944.8079;;;;
2022/06/17 11:58:51;;;;;;;3.4;2.4;;;;;;;27.8;39.91797;944.7903;;;;
2022/06/17 12:01:16;;;;;;;3.7;2.7;;;;;;;27.83;42.25977;944.7276;;;;
2022/06/17 12:03:41;;;;;;;3;2.5;;;;;;;28.02;40.63867;944.7449;;;;
2022/06/17 12:06:08;;;;;;;4;2.6;;;;;;;28.03;40.11719;944.7617;;;;
2022/06/17 12:08:35;;;;;;;4.4;2.7;;;;;;;28.21;40.58398;944.7517;;;;
2022/06/17 12:11:00;;;;;;;2.6;2.4;;;;;;;28.28;41.55469;944.7296;;;;
2022/06/17 12:13:28;;;;;;;3.5;2.6;;;;;;;28.21;40.62012;944.7128;;;;
2022/06/17 12:15:54;;;;;;;2.6;2.4;;;;;;;27.79;40.91406;944.7;;;;
2022/06/17 12:18:19;;;;;;;2.8;2.4;;;;;;;27.69;40.69238;944.634;;;;
2022/06/17 12:20:44;;;;;;;3.6;2.2;;;;;;;28.03;39.83203;944.6619;;;;
2022/06/17 12:23:13;;;;;;;3.5;2.3;;;;;;;27.99;40.11426;944.6708;;;;
2022/06/17 12:25:38;;;;;;;3.5;2.5;;;;;;;27.99;40.08984;944.6094;;;;
2022/06/17 12:28:05;;;;;;;2.5;2.3;;;;;;;28.15;40.13965;944.6538;;;;
2022/06/17 12:30:30;;;;;;;3.1;2.5;;;;;;;28.38;39.2207;944.6406;;;;
2022/06/17 12:32:56;;;;;;;2.6;2.3;;;;;;;28.45;39.31055;944.6387;;;;
2022/06/17 12:35:25;;;;;;;2.8;2.5;;;;;;;28.33;41.83203;944.6333;;;;
2022/06/17 12:37:49;;;;;;;3.3;2.2;;;;;;;28.6;40.98828;944.5438;;;;
2022/06/17 12:40:14;;;;;;;2.7;2.2;;;;;;;28.7;39.41504;944.544;;;;
2022/06/17 12:42:45;;;;;;;2.9;2.6;;;;;;;28.37;40.47949;944.5048;;;;
2022/06/17 12:45:15;;;;;;;2.5;2.3;;;;;;;28.37;41.16895;944.51;;;;
2022/06/17 12:47:40;;;;;;;2.4;2.2;;;;;;;28.45;38.53711;944.5331;;;;
2022/06/17 12:54:57;;;;;;;3.8;2.4;;;;;;;28.39;40.64746;944.4425;;;;
2022/06/17 12:57:25;;;;;;;3.7;2.7;;;;;;;28.38;38.51953;944.4338;;;;
2022/06/17 12:59:51;;;;;;;2.3;2.1;;;;;;;28.31;38.2168;944.4316;;;;
2022/06/17 13:02:21;;;;;;;2.4;2.1;;;;;;;28.23;38.37598;944.4244;;;;
2022/06/17 13:04:47;;;;;;;3.3;2.1;;;;;;;28.06;41.25977;944.3878;;;;
2022/06/17 13:07:14;;;;;;;2.7;2.4;;;;;;;27.9;43.01465;944.3669;;;;
2022/06/17 13:09:44;;;;;;;3;2.3;;;;;;;27.92;40.22559;944.3691;;;;
2022/06/17 13:12:09;;;;;;;2.1;1.9;;;;;;;28.01;39.2959;944.4176;;;;
2022/06/17 13:14:34;;;;;;;3;2.2;;;;;;;28.05;39.60742;944.3787;;;;
2022/06/17 13:16:59;;;;;;;4;2.1;;;;;;;28.18;39.13184;944.3287;;;;
2022/06/17 13:19:24;;;;;;;5.5;2.6;;;;;;;28.01;40.39941;944.2772;;;;
2022/06/17 13:21:50;;;;;;;3;2.3;;;;;;;28.26;40.70801;944.2408;;;;
2022/06/17 13:24:15;;;;;;;2;1.9;;;;;;;28.4;40.01953;944.246;;;;
2022/06/17 13:26:40;;;;;;;2.2;2;;;;;;;28.48;38.27734;944.2434;;;;
2022/06/17 13:29:06;;;;;;;5;2.1;;;;;;;28.64;39.25586;944.3081;;;;
2022/06/17 13:31:31;;;;;;;2.9;2.2;;;;;;;28.69;38.62891;944.3761;;;;
2022/06/17 13:33:56;;;;;;;3.8;2.1;;;;;;;28.65;38.07813;944.2941;;;;
2022/06/17 13:36:22;;;;;;;3.1;2.3;;;;;;;28.15;38.38086;944.3122;;;;
2022/06/17 13:38:47;;;;;;;1.9;1.8;;;;;;;27.97;38.87598;944.2789;;;;
2022/06/17 13:41:14;;;;;;;2.4;2.1;;;;;;;27.61;41.58691;944.3231;;;;
2022/06/17 13:43:37;;;;;;;3;2.3;;;;;;;27.41;40.88086;944.2469;;;;
2022/06/17 13:46:03;;;;;;;2.5;2;;;;;;;27.32;41.12109;944.2988;;;;
2022/06/17 13:48:28;;;;;;;2.5;2.1;;;;;;;27.15;38.02246;944.2611;;;;
2022/06/17 13:50:53;;;;;;;3.1;2.2;;;;;;;27.2;41.25293;944.3464;;;;
2022/06/17 13:53:18;;;;;;;3.1;1.9;;;;;;;27.12;39.0166;944.3074;;;;
2022/06/17 13:55:45;;;;;;;2.7;2.2;;;;;;;27.12;38.60156;944.3541;;;;
2022/06/17 13:58:10;;;;;;;3.1;2.1;;;;;;;27.16;39.36328;944.4178;;;;
2022/06/17 14:00:38;;;;;;;3.2;2.4;;;;;;;27.26;41.50781;944.4175;;;;
2022/06/17 14:03:08;;;;;;;3.3;2.2;;;;;;;27.03;39.75488;944.4406;;;;
2022/06/17 14:05:33;;;;;;;2.9;1.8;;;;;;;27.18;38.84375;944.4036;;;;
2022/06/17 14:07:59;;;;;;;3.3;2.6;;;;;;;27.16;39.48242;944.4333;;;;
2022/06/17 14:10:23;;;;;;;3;1.9;;;;;;;27.25;39.12207;944.4264;;;;
2022/06/17 14:12:51;;;;;;;2.1;1.9;;;;;;;27.06;41.96289;944.4044;;;;
2022/06/17 14:15:18;;;;;;;2;1.9;;;;;;;27.08;42.01172;944.4009;;;;
2022/06/17 14:17:43;;;;;;;2.1;1.8;;;;;;;27.2;39.9834;944.3555;;;;
2022/06/17 14:20:15;;;;;;;3.1;1.8;;;;;;;27.28;39.26758;944.3535;;;;
2022/06/17 14:22:42;;;;;;;3.1;1.8;;;;;;;27.23;39.41699;944.373;;;;
2022/06/17 14:25:07;;;;;;;4.6;2.2;;;;;;;26.88;41.94629;944.347;;;;
2022/06/17 14:27:32;;;;;;;3.4;1.7;;;;;;;26.88;38.77051;944.2686;;;;
2022/06/17 14:29:58;;;;;;;2.8;1.7;;;;;;;26.77;40.00488;944.2552;;;;
2022/06/17 14:33:02;;;;;;;2.4;1.7;;;;;;;26.66;41.17871;944.3831;;;;
2022/06/17 14:35:30;;;;;;;2.3;1.6;;;;;;;26.78;40.40918;944.3362;;;;
2022/06/17 14:37:55;;;;;;;2.9;2;;;;;;;26.96;40.4248;944.3901;;;;
2022/06/17 14:40:25;;;;;;;2.9;1.9;;;;;;;26.88;40.97363;944.4036;;;;
2022/06/17 14:42:50;;;;;;;2.3;1.8;;;;;;;26.63;40.22949;944.427;;;;
2022/06/17 14:45:21;;;;;;;2;1.8;;;;;;;26.6;42.55859;944.4053;;;;
2022/06/17 14:47:46;;;;;;;1.6;1.5;;;;;;;26.7;38.68359;944.3377;;;;
2022/06/17 14:50:11;;;;;;;1.9;1.7;;;;;;;26.71;38.88574;944.3738;;;;
2022/06/17 14:52:37;;;;;;;1.7;1.5;;;;;;;26.64;39.24707;944.3547;;;;
2022/06/17 14:55:02;;;;;;;2.3;1.7;;;;;;;26.74;40.52246;944.3376;;;;
2022/06/17 14:57:27;;;;;;;3.3;1.8;;;;;;;26.86;41.0791;944.3447;;;;
2022/06/17 14:59:52;;;;;;;1.8;1.7;;;;;;;27.02;39.6123;944.3077;;;;
2022/06/17 15:02:18;;;;;;;1.6;1.5;;;;;;;26.75;40.32227;944.311;;;;
2022/06/17 15:04:43;;;;;;;1.8;1.7;;;;;;;26.72;39.44336;944.3047;;;;
2022/06/17 15:07:08;;;;;;;3.2;1.8;;;;;;;26.83;39.87988;944.2444;;;;
2022/06/17 15:09:33;;;;;;;3.6;1.6;;;;;;;26.78;40.65723;944.1875;;;;
2022/06/17 15:12:00;;;;;;;3.9;1.8;;;;;;;26.77;40.34766;944.2078;;;;
2022/06/17 15:14:25;;;;;;;3;1.8;;;;;;;26.52;38.36035;944.2161;;;;
2022/06/17 15:16:50;;;;;;;2.8;1.6;;;;;;;26.32;39.33789;944.2393;;;;
2022/06/17 15:19:21;;;;;;;1.8;1.6;;;;;;;26.36;39.15039;944.1833;;;;
2022/06/17 15:21:46;;;;;;;2.4;1.7;;;;;;;26.36;38.37012;944.1881;;;;
2022/06/17 15:24:13;;;;;;;2.3;1.5;;;;;;;26.37;38.11133;944.1597;;;;
2022/06/17 15:26:38;;;;;;;1.5;1.4;;;;;;;26.25;38.14746;944.1891;;;;
2022/06/17 15:29:03;;;;;;;1.7;1.4;;;;;;;26.12;38.7041;944.1641;;;;
2022/06/17 15:31:28;;;;;;;2.6;1.9;;;;;;;26.06;39.60938;944.1847;;;;
2022/06/17 15:33:55;;;;;;;2.3;1.5;;;;;;;25.91;41.09961;944.1511;;;;
2022/06/17 15:36:20;;;;;;;2.8;1.7;;;;;;;26.04;40.74414;944.0016;;;;
2022/06/17 15:38:45;;;;;;;1.6;1.5;;;;;;;26.02;40.86035;944.1164;;;;
2022/06/17 15:41:10;;;;;;;5;1.8;;;;;;;26.01;40.50391;944.1147;;;;
2022/06/17 15:43:35;;;;;;;1.6;1.5;;;;;;;26.13;40.68066;944.171;;;;
2022/06/17 15:46:00;;;;;;;1.6;1.5;;;;;;;26.05;39.49023;944.1082;;;;